Time;durP1;ratioP1;P1;durP2;ratioP2;P2;SDS_P1;SDS_P2;PMS_P1;PMS_P2;Temp;Humidity;BMP_temperature;BMP_pressure;BME280_temperature;BME280_humidity;BME280_pressure;Samples;Min_cycle;Max_cycle;Signal;HPM_P1;HPM_P2
2023/09/16 00:00:32;;;;;;;35.25;32.60;;;13.30;99.90;;;;;;6214966;23;20020;-84
2023/09/16 00:02:59;;;;;;;43.53;40.08;;;13.30;99.90;;;;;;6265998;22;20066;-83
2023/09/16 00:05:25;;;;;;;41.67;38.40;;;13.30;99.90;;;;;;6214285;23;20020;-84
2023/09/16 00:07:50;;;;;;;36.45;33.20;;;13.20;99.90;;;;;;6239521;23;20008;-83
2023/09/16 00:10:16;;;;;;;36.50;33.30;;;13.20;99.90;;;;;;6239916;23;20048;-84
2023/09/16 00:12:41;;;;;;;33.75;30.77;;;13.20;99.90;;;;;;6214301;23;20008;-84
2023/09/16 00:15:07;;;;;;;39.45;36.28;;;13.20;99.90;;;;;;6240401;23;20015;-83
2023/09/16 00:17:34;;;;;;;37.00;33.92;;;13.10;99.90;;;;;;6240336;23;20012;-83
2023/09/16 00:20:03;;;;;;;41.17;37.67;;;13.10;99.90;;;;;;6239856;23;20439;-84
2023/09/16 00:22:30;;;;;;;41.78;38.13;;;13.10;99.90;;;;;;6264788;22;20525;-83
2023/09/16 00:24:55;;;;;;;30.63;27.95;;;13.10;99.90;;;;;;6265690;22;20012;-84
2023/09/16 00:27:21;;;;;;;42.95;39.38;;;13.10;99.90;;;;;;6240225;23;20042;-84
2023/09/16 00:29:47;;;;;;;44.20;40.33;;;13.10;99.90;;;;;;6240215;23;20012;-83
2023/09/16 00:32:13;;;;;;;40.90;37.20;;;13.10;99.90;;;;;;6240177;23;20067;-84
2023/09/16 00:34:39;;;;;;;41.92;38.33;;;13.10;99.90;;;;;;6214429;23;20467;-84
2023/09/16 00:37:04;;;;;;;41.75;38.20;;;13.20;99.90;;;;;;6238323;23;20012;-85
2023/09/16 00:39:31;;;;;;;43.80;39.90;;;13.10;99.90;;;;;;6239252;23;20012;-85
2023/09/16 00:41:57;;;;;;;41.08;37.47;;;13.10;99.90;;;;;;6265489;22;20068;-85
2023/09/16 00:44:23;;;;;;;43.00;39.03;;;13.70;99.90;;;;;;6239505;23;20044;-85
2023/09/16 00:46:48;;;;;;;43.35;39.45;;;13.50;99.90;;;;;;6239877;23;20024;-86
2023/09/16 00:49:14;;;;;;;42.33;38.72;;;13.60;99.90;;;;;;6239827;23;20027;-85
2023/09/16 00:51:44;;;;;;;45.55;41.45;;;13.10;99.90;;;;;;6214112;23;20386;-84
2023/09/16 00:54:11;;;;;;;42.30;38.33;;;13.10;99.90;;;;;;6214075;23;20099;-83
2023/09/16 00:56:37;;;;;;;40.92;36.97;;;13.10;99.90;;;;;;6265186;22;20350;-82
2023/09/16 00:59:03;;;;;;;44.97;40.75;;;13.10;99.90;;;;;;6265394;22;20327;-83
2023/09/16 01:01:30;;;;;;;43.80;39.65;;;13.00;99.90;;;;;;6240027;23;20016;-83
2023/09/16 01:03:57;;;;;;;44.13;40.08;;;13.00;99.90;;;;;;6239958;23;20081;-83
2023/09/16 01:06:23;;;;;;;44.70;40.72;;;13.00;99.90;;;;;;6265656;22;20024;-83
2023/09/16 01:08:49;;;;;;;41.60;37.70;;;13.00;99.90;;;;;;6241538;23;20016;-83
2023/09/16 01:11:15;;;;;;;42.50;38.55;;;13.50;99.90;;;;;;6241449;23;20138;-83
2023/09/16 01:13:41;;;;;;;36.78;33.60;;;13.00;99.90;;;;;;6241921;23;20016;-83
2023/09/16 01:16:18;;;;;;;42.70;38.90;;;13.00;99.90;;;;;;6216406;23;20010;-83
2023/09/16 01:18:52;;;;;;;43.92;40.20;;;13.00;99.90;;;;;;6216613;23;20016;-83
2023/09/16 01:21:22;;;;;;;43.35;39.60;;;12.90;99.90;;;;;;6240801;23;20144;-83
2023/09/16 01:23:48;;;;;;;45.53;41.55;;;12.90;99.90;;;;;;6215895;23;20160;-82
2023/09/16 01:26:14;;;;;;;45.80;41.97;;;12.90;99.90;;;;;;6241913;23;20443;-83
2023/09/16 01:28:40;;;;;;;34.83;31.85;;;12.80;99.90;;;;;;6241701;23;20024;-82
2023/09/16 01:31:07;;;;;;;43.90;39.80;;;12.80;99.90;;;;;;6241357;23;20012;-83
2023/09/16 01:34:02;;;;;;;44.85;40.83;;;12.90;99.90;;;;;;6267117;22;20403;-83
2023/09/16 01:36:30;;;;;;;49.33;44.78;;;12.80;99.90;;;;;;6215287;23;20016;-83
2023/09/16 01:39:03;;;;;;;48.92;44.45;;;12.90;99.90;;;;;;6215923;23;20019;-83
2023/09/16 01:41:29;;;;;;;50.95;46.75;;;12.80;99.90;;;;;;6216175;23;20019;-83
2023/09/16 01:43:55;;;;;;;42.38;38.88;;;12.90;99.90;;;;;;6241188;23;20386;-83
2023/09/16 01:46:21;;;;;;;52.92;47.78;;;12.80;99.90;;;;;;6240713;23;20043;-82
2023/09/16 01:48:47;;;;;;;48.33;43.70;;;12.90;99.90;;;;;;6240772;23;20016;-83
2023/09/16 01:51:13;;;;;;;44.85;40.92;;;13.10;99.90;;;;;;6240534;23;20201;-82
2023/09/16 01:53:39;;;;;;;50.47;45.70;;;13.30;99.90;;;;;;6266434;22;20016;-83
2023/09/16 01:56:05;;;;;;;55.47;49.92;;;12.90;99.90;;;;;;6241173;23;20012;-83
2023/09/16 01:58:31;;;;;;;50.10;45.25;;;12.90;99.90;;;;;;6240961;23;20363;-82
2023/09/16 02:00:57;;;;;;;38.08;34.75;;;13.00;99.90;;;;;;6266297;22;20008;-83
2023/09/16 02:03:22;;;;;;;43.33;39.20;;;13.00;99.90;;;;;;6240779;23;20046;-83
2023/09/16 02:05:48;;;;;;;55.58;50.47;;;13.00;99.90;;;;;;6240170;23;20012;-83
2023/09/16 02:08:14;;;;;;;47.58;43.17;;;13.00;99.90;;;;;;6215844;23;20044;-83
2023/09/16 02:10:39;;;;;;;51.65;46.67;;;13.00;99.90;;;;;;6266735;22;20494;-83
2023/09/16 02:13:05;;;;;;;54.80;49.58;;;13.00;99.90;;;;;;6240850;23;20012;-83
2023/09/16 02:15:31;;;;;;;58.05;52.63;;;13.00;99.90;;;;;;6240649;23;20393;-83
2023/09/16 02:17:56;;;;;;;49.75;45.42;;;13.00;99.90;;;;;;6215124;23;20027;-83
2023/09/16 02:20:22;;;;;;;44.20;40.38;;;13.00;99.90;;;;;;6239873;22;20012;-83
2023/09/16 02:22:48;;;;;;;48.00;43.28;;;13.20;99.90;;;;;;6240458;23;20012;-83
2023/09/16 02:25:15;;;;;;;46.28;42.10;;;13.00;99.90;;;;;;6239993;23;20440;-83
2023/09/16 02:27:41;;;;;;;42.35;38.33;;;12.90;99.90;;;;;;6214459;23;20016;-83
2023/09/16 02:30:07;;;;;;;44.60;40.45;;;12.90;99.90;;;;;;6241302;23;20089;-83
2023/09/16 02:32:33;;;;;;;46.30;42.20;;;12.90;99.90;;;;;;6265293;22;20008;-83
2023/09/16 02:34:58;;;;;;;48.03;43.70;;;12.80;99.90;;;;;;6239315;23;20437;-83
2023/09/16 02:37:24;;;;;;;49.58;45.05;;;12.90;99.90;;;;;;6214584;23;20008;-83
2023/09/16 02:39:50;;;;;;;55.10;50.10;;;13.20;99.90;;;;;;6239619;23;20016;-83
2023/09/16 02:42:15;;;;;;;51.35;46.63;;;12.70;99.90;;;;;;6214433;23;20019;-83
2023/09/16 02:44:41;;;;;;;52.58;47.85;;;12.80;99.90;;;;;;6239439;23;20008;-83
2023/09/16 02:47:06;;;;;;;51.85;47.08;;;12.60;99.90;;;;;;6214107;23;20019;-83
2023/09/16 02:49:33;;;;;;;52.13;47.58;;;12.80;99.90;;;;;;6238834;23;20016;-83
2023/09/16 02:51:58;;;;;;;58.00;52.67;;;12.60;99.90;;;;;;6214027;23;20016;-83
2023/09/16 02:54:24;;;;;;;53.75;48.65;;;12.60;99.90;;;;;;6239219;23;20016;-83
2023/09/16 02:56:51;;;;;;;48.50;44.22;;;12.60;99.90;;;;;;6239494;23;20493;-83
2023/09/16 02:59:17;;;;;;;43.13;39.58;;;12.60;99.90;;;;;;6214027;23;20247;-83
2023/09/16 03:01:42;;;;;;;51.70;47.00;;;12.50;99.90;;;;;;6239404;23;20302;-83
2023/09/16 03:04:08;;;;;;;52.35;47.75;;;12.50;99.90;;;;;;6238487;23;20027;-83
2023/09/16 03:06:34;;;;;;;44.10;40.10;;;12.50;99.90;;;;;;6214015;23;20099;-83
2023/09/16 03:08:59;;;;;;;53.83;49.17;;;13.00;99.90;;;;;;6239180;23;20099;-83
2023/09/16 03:11:25;;;;;;;55.15;50.55;;;12.50;99.90;;;;;;6239238;23;20008;-83
2023/09/16 03:13:51;;;;;;;37.00;33.80;;;12.50;99.90;;;;;;6213954;23;20099;-83
2023/09/16 03:16:25;;;;;;;46.40;42.55;;;12.90;99.90;;;;;;6213913;23;20048;-84
2023/09/16 03:18:52;;;;;;;50.92;46.75;;;12.40;99.90;;;;;;6239143;23;20073;-83
2023/09/16 03:21:19;;;;;;;42.50;38.95;;;12.80;99.90;;;;;;6239587;23;20332;-83
2023/09/16 03:23:45;;;;;;;47.85;43.72;;;12.50;99.90;;;;;;6214247;23;20023;-83
2023/09/16 03:26:12;;;;;;;52.55;48.13;;;12.60;99.90;;;;;;6239013;23;20066;-83
2023/09/16 03:28:51;;;;;;;46.17;42.28;;;12.60;99.90;;;;;;6238798;23;20466;-82
2023/09/16 03:31:16;;;;;;;44.20;40.20;;;12.70;99.90;;;;;;6238402;23;20034;-83
2023/09/16 03:33:42;;;;;;;43.28;39.67;;;12.50;99.90;;;;;;6240804;23;20438;-83
2023/09/16 03:36:08;;;;;;;49.10;44.90;;;12.50;99.90;;;;;;6238898;23;20012;-83
2023/09/16 03:38:35;;;;;;;39.63;36.42;;;13.10;99.90;;;;;;6239000;23;20012;-83
2023/09/16 03:41:01;;;;;;;46.42;42.55;;;12.50;99.90;;;;;;6264811;22;20317;-83
2023/09/16 03:43:27;;;;;;;43.38;39.38;;;12.50;99.90;;;;;;6239062;23;20019;-83
2023/09/16 03:45:54;;;;;;;44.08;40.20;;;12.80;99.90;;;;;;6238355;23;20019;-83
2023/09/16 03:48:19;;;;;;;45.58;41.47;;;12.40;99.90;;;;;;6213675;23;20012;-83
2023/09/16 03:50:46;;;;;;;43.47;39.80;;;12.30;99.90;;;;;;6213473;23;20020;-83
2023/09/16 03:53:12;;;;;;;45.78;41.88;;;12.30;99.90;;;;;;6238637;23;20020;-83
2023/09/16 03:55:38;;;;;;;45.00;41.17;;;12.00;99.90;;;;;;6264214;22;20040;-83
2023/09/16 03:58:04;;;;;;;51.80;47.63;;;12.20;99.90;;;;;;6264414;22;20012;-83
2023/09/16 04:00:29;;;;;;;52.75;48.08;;;12.20;99.90;;;;;;6238070;23;20016;-83
2023/09/16 04:02:55;;;;;;;52.25;47.85;;;12.40;99.90;;;;;;6213761;23;20020;-83
2023/09/16 04:05:21;;;;;;;48.63;44.45;;;12.10;99.90;;;;;;6213328;23;20020;-83
2023/09/16 04:07:47;;;;;;;47.45;43.38;;;12.10;99.90;;;;;;6238776;23;20130;-83
2023/09/16 04:10:13;;;;;;;49.30;44.75;;;12.10;99.90;;;;;;6213502;23;20074;-83
2023/09/16 04:12:39;;;;;;;52.03;47.33;;;12.00;99.90;;;;;;6238777;23;20047;-83
2023/09/16 04:15:05;;;;;;;49.15;45.00;;;12.20;99.90;;;;;;6237903;23;20419;-82
2023/09/16 04:17:31;;;;;;;55.65;50.83;;;12.00;99.90;;;;;;6264302;22;20435;-83
2023/09/16 04:19:57;;;;;;;48.67;44.50;;;12.00;99.90;;;;;;6264078;22;20012;-83
2023/09/16 04:22:22;;;;;;;40.20;36.67;;;11.90;99.90;;;;;;6238617;23;20446;-83
2023/09/16 04:24:48;;;;;;;46.13;42.22;;;12.20;99.90;;;;;;6238331;23;20012;-83
2023/09/16 04:27:14;;;;;;;48.15;44.10;;;12.00;99.90;;;;;;6264564;22;20023;-83
2023/09/16 04:29:40;;;;;;;43.03;39.33;;;12.00;99.90;;;;;;6237843;23;20020;-83
2023/09/16 04:32:06;;;;;;;46.63;42.78;;;11.90;99.90;;;;;;6238699;23;20019;-83
2023/09/16 04:34:32;;;;;;;43.67;39.85;;;12.20;99.90;;;;;;6263729;22;20012;-83
2023/09/16 04:36:59;;;;;;;47.13;43.08;;;11.70;99.90;;;;;;6263319;22;20016;-82
2023/09/16 04:39:27;;;;;;;58.65;53.75;;;11.80;99.90;;;;;;6237658;23;20023;-82
2023/09/16 04:41:53;;;;;;;50.03;45.67;;;11.80;99.90;;;;;;6240418;23;20012;-84
2023/09/16 04:44:23;;;;;;;50.33;46.03;;;11.80;99.90;;;;;;6239824;23;20030;-83
2023/09/16 04:46:53;;;;;;;43.95;40.05;;;11.80;99.90;;;;;;6215497;23;20043;-83
2023/09/16 04:49:22;;;;;;;52.13;47.67;;;12.00;99.90;;;;;;6266353;22;20016;-83
2023/09/16 04:51:48;;;;;;;53.60;48.80;;;11.60;99.90;;;;;;6240334;23;20020;-82
2023/09/16 04:54:14;;;;;;;53.40;49.13;;;11.70;99.90;;;;;;6265926;22;20039;-83
2023/09/16 04:56:39;;;;;;;44.92;41.15;;;11.70;99.90;;;;;;6215529;23;20431;-83
2023/09/16 04:59:05;;;;;;;48.65;44.70;;;11.70;99.90;;;;;;6239723;23;20011;-83
2023/09/16 05:01:32;;;;;;;50.50;46.13;;;11.70;99.90;;;;;;6240377;23;20038;-83
2023/09/16 05:03:58;;;;;;;48.40;44.25;;;11.90;99.90;;;;;;6214831;23;20016;-84
2023/09/16 05:06:24;;;;;;;50.72;46.28;;;11.80;99.90;;;;;;6240485;23;20092;-83
2023/09/16 05:08:50;;;;;;;58.40;53.58;;;11.60;99.90;;;;;;6265909;22;20254;-85
2023/09/16 05:11:16;;;;;;;56.00;51.00;;;11.60;99.90;;;;;;6265711;22;20016;-85
2023/09/16 05:13:45;;;;;;;53.45;48.90;;;11.60;99.90;;;;;;6239847;23;20043;-85
2023/09/16 05:16:10;;;;;;;58.22;53.08;;;11.60;99.90;;;;;;6215010;23;20343;-84
2023/09/16 05:18:36;;;;;;;57.22;52.65;;;11.60;99.90;;;;;;6240466;23;20023;-85
2023/09/16 05:21:02;;;;;;;53.05;48.83;;;11.60;99.90;;;;;;6239948;23;20012;-84
2023/09/16 05:23:30;;;;;;;57.72;52.90;;;11.70;99.90;;;;;;6240121;23;20166;-85
2023/09/16 05:25:56;;;;;;;59.85;54.72;;;11.60;99.90;;;;;;6240066;23;20394;-85
2023/09/16 05:28:22;;;;;;;48.85;44.70;;;11.60;99.90;;;;;;6214450;23;20012;-84
2023/09/16 05:30:48;;;;;;;55.40;50.75;;;12.10;99.90;;;;;;6265122;22;20012;-84
2023/09/16 05:33:14;;;;;;;52.00;47.45;;;11.60;99.90;;;;;;6240459;23;20027;-84
2023/09/16 05:35:43;;;;;;;57.47;52.83;;;11.90;99.90;;;;;;6240598;23;20081;-84
2023/09/16 05:38:08;;;;;;;54.67;50.03;;;11.90;99.90;;;;;;6240284;23;20423;-83
2023/09/16 05:40:36;;;;;;;57.05;52.38;;;11.60;99.90;;;;;;6215284;23;20016;-84
2023/09/16 05:43:02;;;;;;;51.33;46.67;;;11.60;99.90;;;;;;6240022;23;20555;-84
2023/09/16 05:45:27;;;;;;;62.50;57.17;;;11.70;99.90;;;;;;6215039;23;20015;-84
2023/09/16 05:47:54;;;;;;;56.28;51.17;;;11.70;99.90;;;;;;6240865;23;20470;-84
2023/09/16 05:50:20;;;;;;;55.03;50.13;;;12.30;99.90;;;;;;6266278;22;20486;-84
2023/09/16 05:52:46;;;;;;;51.30;46.53;;;12.50;99.90;;;;;;6240677;23;20017;-83
2023/09/16 05:55:12;;;;;;;51.22;46.67;;;11.80;99.90;;;;;;6214630;23;20093;-84
2023/09/16 05:57:37;;;;;;;47.38;43.30;;;11.80;99.90;;;;;;6265663;22;20030;-84
2023/09/16 06:00:03;;;;;;;46.70;42.65;;;11.80;99.90;;;;;;6215197;23;20012;-84
2023/09/16 06:02:29;;;;;;;48.83;44.47;;;11.90;99.90;;;;;;6267866;22;20031;-85
2023/09/16 06:04:55;;;;;;;45.45;41.60;;;11.90;99.90;;;;;;6244970;23;20020;-83
2023/09/16 06:07:24;;;;;;;36.58;33.38;;;11.90;99.90;;;;;;6239979;23;20016;-83
2023/09/16 06:09:50;;;;;;;42.97;39.33;;;11.70;99.90;;;;;;6265869;22;20008;-83
2023/09/16 06:12:15;;;;;;;39.75;36.47;;;12.00;99.90;;;;;;6239371;23;20016;-83
2023/09/16 06:14:41;;;;;;;50.92;46.63;;;12.70;99.90;;;;;;6239564;23;20012;-82
2023/09/16 06:17:06;;;;;;;45.90;41.70;;;12.10;99.90;;;;;;6240007;23;20362;-83
2023/09/16 06:19:33;;;;;;;45.28;41.15;;;12.20;99.90;;;;;;6239714;23;20401;-83
2023/09/16 06:21:59;;;;;;;53.95;49.13;;;12.20;99.90;;;;;;6214843;23;20016;-84
2023/09/16 06:24:25;;;;;;;50.88;46.13;;;12.50;99.90;;;;;;6241535;23;20527;-84
2023/09/16 06:26:52;;;;;;;46.25;41.75;;;13.00;99.90;;;;;;6214738;23;20016;-84
2023/09/16 06:29:17;;;;;;;54.22;48.83;;;12.60;99.90;;;;;;6240372;23;20069;-83
2023/09/16 06:31:43;;;;;;;57.10;51.85;;;12.50;99.90;;;;;;6240603;23;20008;-84
2023/09/16 06:34:08;;;;;;;50.60;45.83;;;12.60;99.90;;;;;;6240106;23;20024;-83
2023/09/16 06:36:38;;;;;;;45.50;40.97;;;12.70;99.90;;;;;;6240433;23;20086;-83
2023/09/16 06:39:07;;;;;;;50.08;44.83;;;13.40;99.90;;;;;;6265280;22;20023;-84
2023/09/16 06:41:33;;;;;;;55.50;49.92;;;13.00;99.90;;;;;;6239554;23;20019;-84
2023/09/16 06:43:59;;;;;;;56.47;50.60;;;13.20;99.90;;;;;;6265684;22;20024;-84
2023/09/16 06:46:24;;;;;;;49.30;43.92;;;13.30;99.90;;;;;;6240018;23;20091;-83
2023/09/16 06:48:50;;;;;;;53.47;48.47;;;13.40;99.90;;;;;;6239570;23;20016;-82
2023/09/16 06:51:16;;;;;;;50.40;44.88;;;13.60;99.90;;;;;;6239612;23;20012;-83
2023/09/16 06:53:42;;;;;;;50.15;45.13;;;14.20;99.90;;;;;;6239396;23;20446;-83
2023/09/16 06:56:08;;;;;;;42.63;38.15;;;13.80;99.90;;;;;;6264728;22;20048;-83
2023/09/16 06:58:34;;;;;;;44.65;40.13;;;14.00;99.90;;;;;;6265808;22;20501;-83
2023/09/16 07:01:08;;;;;;;35.85;32.28;;;14.10;99.90;;;;;;6214393;23;20076;-83
2023/09/16 07:03:34;;;;;;;43.05;39.10;;;14.20;99.90;;;;;;6239316;23;20016;-84
2023/09/16 07:06:00;;;;;;;38.17;34.13;;;14.50;99.90;;;;;;6214721;23;20016;-82
2023/09/16 07:08:27;;;;;;;41.45;37.35;;;14.40;99.90;;;;;;6215715;23;20068;-87
2023/09/16 07:10:54;;;;;;;34.40;31.05;;;14.50;99.90;;;;;;6192867;23;20012;-82
2023/09/16 07:13:19;;;;;;;37.28;33.03;;;14.60;99.90;;;;;;6239682;23;20420;-82
2023/09/16 07:15:52;;;;;;;39.22;35.22;;;14.70;99.90;;;;;;6214170;23;20467;-80
2023/09/16 07:18:18;;;;;;;41.95;38.22;;;14.80;99.90;;;;;;6241370;23;20019;-82
2023/09/16 07:20:44;;;;;;;37.28;33.45;;;14.90;99.90;;;;;;6214212;23;20013;-82
2023/09/16 07:23:09;;;;;;;32.35;29.02;;;14.90;99.90;;;;;;6213021;23;20372;-82
2023/09/16 07:25:35;;;;;;;32.28;29.10;;;15.00;99.90;;;;;;6188541;23;20012;-82
2023/09/16 07:28:03;;;;;;;34.47;31.08;;;15.10;99.90;;;;;;6214046;23;20016;-83
2023/09/16 07:30:28;;;;;;;34.40;29.48;;;15.20;99.90;;;;;;6213959;23;20020;-83
2023/09/16 07:32:54;;;;;;;40.42;36.08;;;15.30;99.90;;;;;;6187588;23;20085;-82
2023/09/16 07:35:20;;;;;;;37.58;33.90;;;15.30;99.90;;;;;;6212727;23;20012;-82
2023/09/16 07:37:45;;;;;;;35.30;31.80;;;15.50;99.90;;;;;;6186827;23;20088;-83
2023/09/16 07:40:11;;;;;;;34.38;31.00;;;15.00;99.90;;;;;;6212745;23;20012;-82
2023/09/16 07:42:37;;;;;;;22.25;19.88;;;15.50;99.90;;;;;;6238177;23;20162;-83
2023/09/16 07:45:06;;;;;;;30.60;26.85;;;15.60;99.90;;;;;;6213112;23;20528;-83
2023/09/16 07:47:32;;;;;;;30.13;27.13;;;15.70;99.90;;;;;;6213676;23;20329;-83
2023/09/16 07:49:58;;;;;;;29.67;26.73;;;15.70;99.90;;;;;;6213848;23;20012;-83
2023/09/16 07:52:24;;;;;;;26.13;23.48;;;15.90;99.90;;;;;;6213451;23;20019;-83
2023/09/16 07:54:49;;;;;;;24.02;21.85;;;15.80;99.90;;;;;;6213645;23;20358;-83
2023/09/16 07:57:15;;;;;;;30.40;27.30;;;15.90;99.90;;;;;;6213650;23;20012;-83
2023/09/16 07:59:41;;;;;;;27.50;24.75;;;15.90;99.90;;;;;;6213838;23;20054;-83
2023/09/16 08:02:06;;;;;;;28.10;25.08;;;16.10;99.90;;;;;;6213480;23;20012;-83
2023/09/16 08:04:32;;;;;;;32.25;29.15;;;16.20;99.90;;;;;;6220605;23;20265;-83
2023/09/16 08:06:58;;;;;;;21.70;19.50;;;16.40;99.90;;;;;;6238152;23;20024;-83
2023/09/16 08:09:24;;;;;;;27.40;24.50;;;16.70;99.90;;;;;;6238807;23;20020;-83
2023/09/16 08:11:50;;;;;;;25.90;23.20;;;16.70;99.90;;;;;;6213595;23;20095;-83
2023/09/16 08:14:16;;;;;;;24.63;22.02;;;16.80;99.90;;;;;;6238751;23;20044;-83
2023/09/16 08:16:41;;;;;;;25.63;20.15;;;17.00;99.90;;;;;;6215612;23;20019;-83
2023/09/16 08:19:07;;;;;;;25.45;21.75;;;17.30;99.90;;;;;;6215580;23;20077;-83
2023/09/16 08:21:33;;;;;;;23.63;21.10;;;17.50;99.90;;;;;;6240043;22;20111;-83
2023/09/16 08:23:58;;;;;;;24.08;21.33;;;17.70;99.90;;;;;;6240877;23;20459;-83
2023/09/16 08:26:24;;;;;;;22.52;20.33;;;17.80;99.90;;;;;;6240829;23;20040;-83
2023/09/16 08:28:50;;;;;;;23.60;21.13;;;18.00;99.90;;;;;;6240849;23;20020;-83
2023/09/16 08:31:15;;;;;;;22.05;19.70;;;18.10;99.90;;;;;;6240835;23;20016;-83
2023/09/16 08:33:41;;;;;;;21.67;19.48;;;18.20;99.90;;;;;;6240656;23;20020;-83
2023/09/16 08:36:07;;;;;;;22.98;20.67;;;18.40;99.90;;;;;;6240198;23;20020;-83
2023/09/16 08:38:32;;;;;;;21.23;19.13;;;18.50;99.90;;;;;;6215253;23;20019;-83
2023/09/16 08:41:11;;;;;;;22.27;19.90;;;18.60;99.90;;;;;;6240778;23;20016;-83
2023/09/16 08:43:41;;;;;;;22.38;20.33;;;18.60;99.90;;;;;;6241078;23;20464;-83
2023/09/16 08:46:17;;;;;;;21.30;19.25;;;18.60;99.90;;;;;;6266148;22;20012;-83
2023/09/16 08:48:45;;;;;;;22.50;19.88;;;18.90;99.90;;;;;;6266111;22;20096;-83
2023/09/16 08:51:14;;;;;;;24.77;20.15;;;19.00;99.90;;;;;;6239974;23;20095;-83
2023/09/16 08:53:42;;;;;;;21.30;19.13;;;19.10;99.90;;;;;;6214991;23;20012;-83
2023/09/16 08:56:09;;;;;;;21.20;19.25;;;19.10;99.90;;;;;;6215336;23;20260;-83
2023/09/16 08:58:35;;;;;;;20.48;18.13;;;19.20;99.90;;;;;;6240478;23;20008;-82
2023/09/16 09:01:02;;;;;;;19.48;17.50;;;19.20;99.90;;;;;;6265938;22;20019;-81
2023/09/16 09:03:31;;;;;;;20.05;17.60;;;19.10;99.90;;;;;;6241990;22;20332;-82
2023/09/16 09:05:57;;;;;;;20.15;18.10;;;19.10;99.90;;;;;;6239511;23;20094;-83
2023/09/16 09:08:22;;;;;;;25.95;17.40;;;19.10;99.90;;;;;;6240288;23;20403;-82
2023/09/16 09:10:49;;;;;;;18.90;17.15;;;19.20;99.90;;;;;;6240169;23;20019;-82
2023/09/16 09:13:15;;;;;;;19.48;17.05;;;19.10;99.90;;;;;;6214988;23;20390;-82
2023/09/16 09:15:43;;;;;;;20.40;18.33;;;19.20;99.90;;;;;;6240254;23;20016;-83
2023/09/16 09:18:12;;;;;;;22.17;19.80;;;19.20;99.90;;;;;;6240061;23;20316;-83
2023/09/16 09:20:38;;;;;;;19.83;17.83;;;19.30;99.90;;;;;;6214391;23;20340;-83
2023/09/16 09:23:04;;;;;;;22.67;17.35;;;19.30;99.90;;;;;;6265722;22;20043;-83
2023/09/16 09:25:36;;;;;;;17.95;16.15;;;19.40;99.90;;;;;;6240364;23;20016;-82
2023/09/16 09:28:03;;;;;;;19.02;17.13;;;19.50;99.90;;;;;;6265657;22;20027;-83
2023/09/16 09:30:31;;;;;;;21.23;18.17;;;19.60;99.90;;;;;;6214965;23;20247;-82
2023/09/16 09:32:58;;;;;;;18.35;16.65;;;19.60;99.90;;;;;;6240119;23;20008;-82
2023/09/16 09:35:29;;;;;;;20.00;18.05;;;19.60;99.90;;;;;;6264950;22;20023;-82
2023/09/16 09:37:58;;;;;;;21.15;19.10;;;19.70;99.90;;;;;;6214598;23;20382;-83
2023/09/16 09:40:24;;;;;;;17.35;15.65;;;19.70;99.90;;;;;;6265635;22;20016;-83
2023/09/16 09:42:57;;;;;;;15.95;14.00;;;19.90;99.90;;;;;;6265428;22;20038;-82
2023/09/16 09:45:24;;;;;;;19.75;17.30;;;19.90;99.90;;;;;;6265702;22;20278;-82
2023/09/16 09:47:52;;;;;;;14.45;13.10;;;20.00;99.90;;;;;;6214054;23;20016;-82
2023/09/16 09:50:20;;;;;;;12.52;11.32;;;20.10;99.90;;;;;;6239964;23;20023;-82
2023/09/16 09:52:51;;;;;;;13.77;11.82;;;20.10;99.90;;;;;;6239925;23;20013;-82
2023/09/16 09:55:18;;;;;;;12.48;11.10;;;20.10;99.90;;;;;;6239895;23;20012;-82
2023/09/16 09:57:46;;;;;;;11.88;10.35;;;20.20;99.90;;;;;;6240291;23;20012;-82
2023/09/16 10:00:16;;;;;;;11.40;10.23;;;20.40;99.90;;;;;;6266050;22;20023;-82
2023/09/16 10:02:43;;;;;;;13.02;10.60;;;20.40;99.90;;;;;;6214044;23;20027;-82
2023/09/16 10:05:14;;;;;;;11.15;10.05;;;20.50;99.90;;;;;;6265456;22;20012;-82
2023/09/16 10:07:44;;;;;;;13.15;11.60;;;20.60;99.90;;;;;;6265695;22;20355;-82
2023/09/16 10:10:20;;;;;;;13.30;10.00;;;20.70;99.90;;;;;;6239735;23;20039;-82
2023/09/16 10:12:46;;;;;;;14.52;13.18;;;20.50;99.90;;;;;;6239966;23;20004;-82
2023/09/16 10:15:12;;;;;;;15.18;12.43;;;20.70;99.90;;;;;;6239826;23;20031;-82
2023/09/16 10:17:40;;;;;;;13.23;11.82;;;20.80;99.90;;;;;;6239675;23;20016;-82
2023/09/16 10:20:10;;;;;;;14.23;12.93;;;20.80;99.90;;;;;;6265827;22;20020;-82
2023/09/16 10:22:39;;;;;;;16.45;12.05;;;20.80;99.90;;;;;;6265917;22;20141;-82
2023/09/16 10:25:05;;;;;;;14.10;12.77;;;20.90;99.90;;;;;;6242326;22;20335;-82
2023/09/16 10:27:37;;;;;;;13.45;11.90;;;20.90;99.90;;;;;;6214524;23;20020;-82
2023/09/16 10:30:04;;;;;;;13.75;11.90;;;21.00;99.90;;;;;;6265794;22;20082;-82
2023/09/16 10:32:30;;;;;;;12.63;10.65;;;21.20;99.90;;;;;;6241368;22;20008;-82
2023/09/16 10:35:00;;;;;;;12.52;9.32;;;21.30;99.90;;;;;;6214211;23;20020;-82
2023/09/16 10:37:26;;;;;;;13.80;8.35;;;21.40;99.90;;;;;;6239924;23;20039;-82
2023/09/16 10:39:54;;;;;;;13.52;9.55;;;21.40;99.90;;;;;;6239803;23;20011;-82
2023/09/16 10:42:21;;;;;;;14.75;10.93;;;21.60;99.90;;;;;;6265706;22;20046;-82
2023/09/16 10:44:47;;;;;;;10.55;8.15;;;21.60;99.90;;;;;;6239904;23;20016;-82
2023/09/16 10:47:16;;;;;;;9.95;8.15;;;21.70;99.90;;;;;;6264610;22;20019;-81
2023/09/16 10:49:42;;;;;;;14.05;9.02;;;21.80;99.90;;;;;;6265125;22;20035;-82
2023/09/16 10:52:13;;;;;;;10.93;7.97;;;21.80;99.90;;;;;;6239782;23;20115;-82
2023/09/16 10:54:45;;;;;;;10.27;8.10;;;21.80;99.90;;;;;;6239535;23;20127;-82
2023/09/16 10:57:19;;;;;;;14.27;7.93;;;21.80;99.90;;;;;;6265096;22;20066;-82
2023/09/16 10:59:51;;;;;;;10.43;7.07;;;21.80;99.90;;;;;;6240127;23;20047;-82
2023/09/16 11:02:42;;;;;;;13.68;9.13;;;21.90;99.90;;;;;;6239297;23;20011;-82
2023/09/16 11:05:08;;;;;;;10.70;7.28;;;22.00;99.90;;;;;;6239465;23;20171;-83
2023/09/16 11:07:35;;;;;;;10.63;9.43;;;22.00;99.90;;;;;;6239580;23;20428;-82
2023/09/16 11:10:03;;;;;;;11.63;8.70;;;22.10;99.90;;;;;;6239950;23;20012;-82
2023/09/16 11:12:31;;;;;;;9.45;7.97;;;22.10;99.90;;;;;;6239668;23;20027;-82
2023/09/16 11:14:57;;;;;;;12.18;7.97;;;22.20;99.90;;;;;;6239094;23;20012;-83
2023/09/16 11:17:23;;;;;;;8.50;6.78;;;22.20;99.90;;;;;;6239268;23;20328;-82
2023/09/16 11:19:49;;;;;;;7.60;5.60;;;22.20;99.90;;;;;;6239061;23;20027;-82
2023/09/16 11:22:16;;;;;;;9.98;7.03;;;22.30;99.90;;;;;;6214036;23;20012;-83
2023/09/16 11:24:42;;;;;;;5.93;4.43;;;22.20;99.90;;;;;;6239069;23;20056;-82
2023/09/16 11:27:08;;;;;;;6.57;5.45;;;22.40;99.90;;;;;;6213771;23;20016;-82
2023/09/16 11:29:36;;;;;;;8.90;5.57;;;22.60;99.90;;;;;;6238758;23;20008;-82
2023/09/16 11:32:02;;;;;;;11.68;9.05;;;22.70;99.90;;;;;;6264716;22;20023;-82
2023/09/16 11:34:29;;;;;;;11.93;9.73;;;22.70;99.90;;;;;;6264490;22;20079;-82
2023/09/16 11:37:01;;;;;;;12.13;9.48;;;22.60;99.90;;;;;;6239243;23;20016;-82
2023/09/16 11:39:35;;;;;;;15.13;8.93;;;22.60;99.90;;;;;;6264689;22;20453;-82
2023/09/16 11:42:01;;;;;;;12.43;8.88;;;22.70;99.90;;;;;;6239289;23;20451;-82
2023/09/16 11:44:28;;;;;;;12.40;7.93;;;22.80;99.90;;;;;;6238704;23;20470;-82
2023/09/16 11:46:54;;;;;;;12.15;7.72;;;22.80;99.90;;;;;;6239162;23;20374;-82
2023/09/16 11:49:20;;;;;;;11.75;7.38;;;22.80;99.90;;;;;;6238967;23;20012;-82
2023/09/16 11:51:51;;;;;;;8.90;7.05;;;23.00;99.90;;;;;;6240903;23;20071;-82
2023/09/16 11:54:18;;;;;;;9.65;7.30;;;23.20;99.90;;;;;;6239403;23;20016;-82
2023/09/16 11:56:43;;;;;;;7.60;5.03;;;23.40;99.90;;;;;;6239040;23;20173;-82
2023/09/16 11:59:11;;;;;;;8.70;5.97;;;23.40;99.90;;;;;;6238584;23;20024;-82
2023/09/16 12:01:40;;;;;;;9.95;7.05;;;23.60;99.90;;;;;;6239111;23;20390;-85
2023/09/16 12:04:07;;;;;;;6.60;4.40;;;23.60;99.90;;;;;;6212890;23;20608;-84
2023/09/16 12:06:37;;;;;;;8.60;6.20;;;23.60;99.90;;;;;;6238357;23;20027;-83
2023/09/16 12:09:06;;;;;;;8.18;6.32;;;23.60;99.90;;;;;;6239954;22;20082;-83
2023/09/16 12:11:32;;;;;;;8.25;4.93;;;23.50;99.90;;;;;;6213118;23;20016;-83
2023/09/16 12:14:00;;;;;;;8.05;5.82;;;23.60;99.90;;;;;;6213174;23;20016;-83
2023/09/16 12:16:26;;;;;;;9.95;7.00;;;23.70;99.90;;;;;;6238831;23;20031;-83
2023/09/16 12:18:52;;;;;;;10.85;9.65;;;23.80;99.90;;;;;;6213200;23;20012;-83
2023/09/16 12:21:18;;;;;;;6.03;5.40;;;23.80;99.90;;;;;;6264544;22;20009;-83
2023/09/16 12:23:48;;;;;;;8.45;7.65;;;23.90;99.90;;;;;;6238080;23;20023;-82
2023/09/16 12:26:13;;;;;;;6.47;5.88;;;24.00;99.90;;;;;;6240959;23;20016;-84